Time;durP1;ratioP1;P1;durP2;ratioP2;P2;SDS_P1;SDS_P2;PMS_P1;PMS_P2;Temp;Humidity;BMP_temperature;BMP_pressure;BME280_temperature;BME280_humidity;BME280_pressure;Samples;Min_cycle;Max_cycle;Signal;HPM_P1;HPM_P2
2023/02/02 00:00:48;;;;;;;8.50;5.28;;;;;;;;;;4982709;28;20109;-75
2023/02/02 00:03:34;;;;;;;9.13;5.32;;;;;;;;;;4980794;28;20352;-74
2023/02/02 00:06:20;;;;;;;9.55;5.10;;;;;;;;;;4964080;28;20026;-74
2023/02/02 00:09:05;;;;;;;7.70;4.78;;;;;;;;;;4977151;28;20034;-75
2023/02/02 00:11:51;;;;;;;8.73;4.90;;;;;;;;;;4976979;28;20015;-74
2023/02/02 00:14:37;;;;;;;8.85;5.22;;;;;;;;;;4977882;28;20029;-72
2023/02/02 00:17:22;;;;;;;8.77;4.95;;;;;;;;;;4963870;28;20038;-74
2023/02/02 00:20:08;;;;;;;10.15;5.38;;;;;;;;;;4963400;28;20014;-73
2023/02/02 00:22:54;;;;;;;7.70;4.88;;;;;;;;;;4962907;28;20030;-75
2023/02/02 00:25:40;;;;;;;9.73;5.18;;;;;;;;;;4976233;28;20372;-74
2023/02/02 00:28:25;;;;;;;8.82;5.10;;;;;;;;;;4975947;28;20065;-75
2023/02/02 00:31:11;;;;;;;8.15;5.30;;;;;;;;;;4976183;28;20074;-74
2023/02/02 00:33:56;;;;;;;8.20;5.13;;;;;;;;;;4976356;28;20122;-75
2023/02/02 00:36:42;;;;;;;10.05;4.70;;;;;;;;;;4976261;28;20360;-74
2023/02/02 00:39:28;;;;;;;10.57;5.20;;;;;;;;;;4977402;28;20073;-74
2023/02/02 00:42:14;;;;;;;8.27;5.13;;;;;;;;;;4963041;28;20031;-74
2023/02/02 00:45:17;;;;;;;8.73;4.63;;;;;;;;;;4976206;28;20097;-74
2023/02/02 00:48:03;;;;;;;8.05;4.85;;;;;;;;;;4963429;28;20089;-74
2023/02/02 00:50:49;;;;;;;10.05;5.10;;;;;;;;;;4977109;28;20023;-74
2023/02/02 00:53:35;;;;;;;9.70;4.80;;;;;;;;;;4962983;28;20102;-75
2023/02/02 00:56:20;;;;;;;9.38;5.43;;;;;;;;;;4962704;28;20077;-74
2023/02/02 00:59:06;;;;;;;7.70;4.78;;;;;;;;;;4965810;28;20098;-73
2023/02/02 01:01:51;;;;;;;7.75;4.45;;;;;;;;;;4967563;28;20054;-74
2023/02/02 01:04:37;;;;;;;8.13;4.60;;;;;;;;;;4976572;28;20101;-75
2023/02/02 01:07:23;;;;;;;8.82;4.80;;;;;;;;;;4977170;28;20018;-74
2023/02/02 01:10:13;;;;;;;8.73;4.75;;;;;;;;;;4976733;28;20105;-74
2023/02/02 01:12:58;;;;;;;7.53;4.68;;;;;;;;;;4975431;28;20366;-74
2023/02/02 01:15:44;;;;;;;10.50;5.00;;;;;;;;;;4962629;28;20034;-74
2023/02/02 01:18:30;;;;;;;8.35;4.90;;;;;;;;;;4976976;28;20062;-74
2023/02/02 01:21:15;;;;;;;9.18;5.40;;;;;;;;;;4975337;28;20031;-75
2023/02/02 01:24:01;;;;;;;7.38;5.18;;;;;;;;;;4967638;28;20047;-74
2023/02/02 01:26:47;;;;;;;9.05;5.43;;;;;;;;;;4974684;28;20042;-74
2023/02/02 01:29:32;;;;;;;8.23;5.20;;;;;;;;;;4975834;28;20049;-73
2023/02/02 01:32:18;;;;;;;9.88;5.30;;;;;;;;;;4975588;28;20344;-73
2023/02/02 01:35:03;;;;;;;10.43;5.45;;;;;;;;;;4975841;28;20065;-74
2023/02/02 01:37:49;;;;;;;10.05;5.63;;;;;;;;;;4975987;28;20428;-75
2023/02/02 01:40:34;;;;;;;9.15;5.80;;;;;;;;;;4975162;28;20054;-74
2023/02/02 01:43:23;;;;;;;11.80;6.32;;;;;;;;;;4976148;28;20093;-75
2023/02/02 01:46:12;;;;;;;9.45;5.55;;;;;;;;;;4975544;28;20482;-74
2023/02/02 01:48:58;;;;;;;10.88;5.47;;;;;;;;;;4975247;28;20023;-75
2023/02/02 01:51:49;;;;;;;12.02;5.88;;;;;;;;;;4975635;28;20019;-74
2023/02/02 01:54:36;;;;;;;8.88;5.75;;;;;;;;;;4974904;28;20105;-75
2023/02/02 01:57:24;;;;;;;10.75;6.15;;;;;;;;;;4975702;28;20053;-74
2023/02/02 02:00:12;;;;;;;12.95;6.13;;;;;;;;;;4976121;28;20162;-74
2023/02/02 02:03:00;;;;;;;11.40;6.13;;;;;;;;;;4975963;28;20027;-74
2023/02/02 02:05:52;;;;;;;10.95;6.30;;;;;;;;;;4975641;28;20026;-74
2023/02/02 02:08:56;;;;;;;9.00;6.13;;;;;;;;;;4975445;28;20050;-74
2023/02/02 02:11:42;;;;;;;9.52;6.40;;;;;;;;;;4975168;28;20114;-75
2023/02/02 02:17:42;;;;;;;11.48;6.95;;;;;;;;;;4975752;28;20026;-74
2023/02/02 02:27:14;;;;;;;12.27;7.20;;;;;;;;;;4975718;28;20030;-74
2023/02/02 02:30:06;;;;;;;13.07;7.18;;;;;;;;;;4961669;28;20115;-73
2023/02/02 02:33:14;;;;;;;14.85;6.80;;;;;;;;;;4961929;28;20105;-74
2023/02/02 02:36:07;;;;;;;10.13;6.53;;;;;;;;;;4975798;28;20023;-75
2023/02/02 02:39:08;;;;;;;11.13;6.28;;;;;;;;;;4974689;28;20023;-73
2023/02/02 02:41:59;;;;;;;11.38;6.45;;;;;;;;;;4962048;28;20094;-74
2023/02/02 02:44:46;;;;;;;10.63;6.72;;;;;;;;;;4975918;28;20023;-75
2023/02/02 02:47:33;;;;;;;10.70;6.85;;;;;;;;;;4975069;28;20022;-74
2023/02/02 02:50:19;;;;;;;12.48;7.05;;;;;;;;;;4976079;28;20019;-74
2023/02/02 02:53:10;;;;;;;11.95;7.22;;;;;;;;;;4965366;28;20282;-75
2023/02/02 02:56:11;;;;;;;10.82;6.60;;;;;;;;;;4965400;28;20053;-74
2023/02/02 02:59:00;;;;;;;11.77;6.53;;;;;;;;;;4978180;28;20033;-74
2023/02/02 03:01:54;;;;;;;9.00;5.50;;;;;;;;;;4978898;28;20148;-74
2023/02/02 03:04:46;;;;;;;10.57;6.57;;;;;;;;;;4964951;28;20454;-74
2023/02/02 03:07:41;;;;;;;10.23;7.03;;;;;;;;;;4965080;28;20034;-74
2023/02/02 03:10:28;;;;;;;11.18;6.55;;;;;;;;;;4977939;28;20022;-74
2023/02/02 03:13:14;;;;;;;9.82;6.47;;;;;;;;;;4977624;28;20470;-74
2023/02/02 03:16:00;;;;;;;14.02;6.68;;;;;;;;;;4979104;28;20034;-74
2023/02/02 03:18:46;;;;;;;12.95;6.60;;;;;;;;;;4977968;28;20085;-74
2023/02/02 03:21:32;;;;;;;11.95;6.85;;;;;;;;;;4977799;28;20352;-74
2023/02/02 03:24:18;;;;;;;10.57;6.15;;;;;;;;;;4978421;28;20049;-74
2023/02/02 03:27:03;;;;;;;11.73;6.68;;;;;;;;;;4977643;28;20077;-74
2023/02/02 03:29:49;;;;;;;9.85;6.22;;;;;;;;;;4964652;28;20019;-74
2023/02/02 03:32:35;;;;;;;11.38;6.80;;;;;;;;;;4977066;28;20122;-74
2023/02/02 03:35:20;;;;;;;11.25;6.53;;;;;;;;;;4978614;28;20551;-74
2023/02/02 03:38:06;;;;;;;11.68;6.53;;;;;;;;;;4978359;28;20113;-74
2023/02/02 03:40:51;;;;;;;12.43;6.68;;;;;;;;;;4977493;28;20097;-75
2023/02/02 03:43:37;;;;;;;12.38;6.72;;;;;;;;;;4977949;28;20375;-73
2023/02/02 03:46:23;;;;;;;9.77;6.68;;;;;;;;;;4964335;28;20022;-74
2023/02/02 03:49:09;;;;;;;12.48;7.18;;;;;;;;;;4977219;28;20029;-74
2023/02/02 03:51:55;;;;;;;10.27;6.60;;;;;;;;;;4977029;28;20050;-75
2023/02/02 03:54:40;;;;;;;12.23;7.25;;;;;;;;;;4977372;28;20019;-74
2023/02/02 03:57:26;;;;;;;13.32;7.25;;;;;;;;;;4976813;28;20054;-73
2023/02/02 04:00:11;;;;;;;12.10;6.60;;;;;;;;;;4964442;28;20027;-74
2023/02/02 04:02:57;;;;;;;12.80;7.00;;;;;;;;;;4975710;28;20033;-74
2023/02/02 04:05:43;;;;;;;10.68;6.15;;;;;;;;;;4977358;28;20089;-74
2023/02/02 04:08:30;;;;;;;10.93;6.40;;;;;;;;;;4963581;28;20054;-74
2023/02/02 04:11:15;;;;;;;11.88;7.18;;;;;;;;;;4977597;28;20495;-74
2023/02/02 04:14:01;;;;;;;10.60;6.50;;;;;;;;;;4976697;28;20027;-74
2023/02/02 04:16:47;;;;;;;11.35;6.40;;;;;;;;;;4963887;28;20034;-74
2023/02/02 04:19:32;;;;;;;9.18;5.85;;;;;;;;;;4977573;28;20038;-74
2023/02/02 04:22:18;;;;;;;10.68;6.10;;;;;;;;;;4976648;28;20042;-74
2023/02/02 04:25:04;;;;;;;11.80;6.07;;;;;;;;;;4943988;29;20456;-74
2023/02/02 04:27:49;;;;;;;11.52;6.03;;;;;;;;;;4957088;29;20019;-74
2023/02/02 04:30:35;;;;;;;9.68;6.20;;;;;;;;;;4957255;29;20348;-75
2023/02/02 04:33:21;;;;;;;10.60;5.82;;;;;;;;;;4944057;28;20106;-74
2023/02/02 04:36:07;;;;;;;10.25;5.65;;;;;;;;;;4944345;28;20038;-75
2023/02/02 04:38:53;;;;;;;10.52;5.68;;;;;;;;;;4957676;28;20360;-74
2023/02/02 04:41:38;;;;;;;10.52;5.53;;;;;;;;;;4956739;29;20524;-74
2023/02/02 04:44:24;;;;;;;10.60;5.63;;;;;;;;;;4943931;28;20449;-75
2023/02/02 04:47:09;;;;;;;9.50;5.45;;;;;;;;;;4956949;29;20019;-75
2023/02/02 04:49:55;;;;;;;9.40;5.82;;;;;;;;;;4957145;28;20055;-75
2023/02/02 04:52:41;;;;;;;9.45;5.72;;;;;;;;;;4956545;29;20019;-74
2023/02/02 04:55:26;;;;;;;8.68;5.60;;;;;;;;;;4957081;29;20091;-74
2023/02/02 04:58:12;;;;;;;10.50;5.70;;;;;;;;;;4943599;28;20031;-74
2023/02/02 05:00:58;;;;;;;9.43;5.85;;;;;;;;;;4956855;29;20436;-73
2023/02/02 05:03:44;;;;;;;7.35;5.18;;;;;;;;;;4956645;29;20035;-74
2023/02/02 05:06:29;;;;;;;11.63;5.60;;;;;;;;;;4956577;29;20024;-74
2023/02/02 05:09:15;;;;;;;11.55;5.72;;;;;;;;;;4956554;29;20034;-73
2023/02/02 05:12:01;;;;;;;8.93;5.40;;;;;;;;;;4956423;29;20016;-75
2023/02/02 05:14:46;;;;;;;9.82;5.88;;;;;;;;;;4955995;28;20025;-75
2023/02/02 05:17:32;;;;;;;9.27;6.00;;;;;;;;;;4956695;29;20085;-75
2023/02/02 05:20:20;;;;;;;9.90;6.25;;;;;;;;;;4937535;28;20011;-74
2023/02/02 05:23:06;;;;;;;13.35;7.25;;;;;;;;;;4941724;29;20376;-75
2023/02/02 05:25:52;;;;;;;10.32;6.38;;;;;;;;;;4955491;29;20079;-74
2023/02/02 05:28:38;;;;;;;10.73;6.38;;;;;;;;;;4955222;29;20038;-75
2023/02/02 05:31:24;;;;;;;9.43;5.72;;;;;;;;;;4957488;28;20028;-75
2023/02/02 05:34:10;;;;;;;7.93;5.28;;;;;;;;;;4961266;28;20023;-75
2023/02/02 05:36:55;;;;;;;7.60;4.95;;;;;;;;;;4968960;29;20042;-74
2023/02/02 05:39:41;;;;;;;8.90;4.88;;;;;;;;;;4966347;29;20069;-76
2023/02/02 05:42:27;;;;;;;8.13;4.90;;;;;;;;;;4957686;28;20482;-74
2023/02/02 05:45:12;;;;;;;11.02;5.70;;;;;;;;;;4956648;29;20027;-74
2023/02/02 05:47:58;;;;;;;9.30;4.95;;;;;;;;;;4956153;29;20030;-75
2023/02/02 05:50:48;;;;;;;8.55;5.15;;;;;;;;;;4956087;28;20034;-74
2023/02/02 05:53:33;;;;;;;9.35;5.45;;;;;;;;;;4954948;29;20039;-75
2023/02/02 05:56:19;;;;;;;8.80;5.22;;;;;;;;;;4954831;29;20023;-73
2023/02/02 05:59:06;;;;;;;8.57;4.80;;;;;;;;;;4956175;29;20452;-75
2023/02/02 06:01:51;;;;;;;9.55;5.38;;;;;;;;;;4955707;29;20444;-74
2023/02/02 06:04:37;;;;;;;7.75;5.15;;;;;;;;;;4955562;29;20055;-75
2023/02/02 06:07:23;;;;;;;10.27;6.25;;;;;;;;;;4955855;29;20027;-74
2023/02/02 06:10:08;;;;;;;11.85;7.28;;;;;;;;;;4954752;29;20031;-74
2023/02/02 06:12:54;;;;;;;13.18;7.38;;;;;;;;;;4955733;29;20023;-75
2023/02/02 06:15:41;;;;;;;11.52;7.13;;;;;;;;;;4956389;28;20034;-74
2023/02/02 06:18:27;;;;;;;10.93;6.53;;;;;;;;;;4956142;28;20478;-74
2023/02/02 06:21:12;;;;;;;12.07;6.10;;;;;;;;;;4955863;29;20037;-75
2023/02/02 06:23:58;;;;;;;11.85;6.70;;;;;;;;;;4955639;29;20110;-73
2023/02/02 06:26:44;;;;;;;10.88;6.80;;;;;;;;;;4956731;28;20329;-76
2023/02/02 06:29:29;;;;;;;9.32;5.93;;;;;;;;;;4959942;29;20055;-74
2023/02/02 06:32:15;;;;;;;11.25;6.18;;;;;;;;;;4958524;29;20334;-74
2023/02/02 06:35:00;;;;;;;9.15;5.75;;;;;;;;;;4967849;29;20107;-74
2023/02/02 06:37:47;;;;;;;9.68;6.25;;;;;;;;;;4964438;28;20038;-73
2023/02/02 06:40:32;;;;;;;8.88;5.28;;;;;;;;;;4959980;29;20069;-75
2023/02/02 06:43:18;;;;;;;7.15;5.03;;;;;;;;;;4960168;28;20035;-75
2023/02/02 06:46:04;;;;;;;7.50;4.90;;;;;;;;;;4958984;29;20019;-74
2023/02/02 06:48:49;;;;;;;10.20;5.68;;;;;;;;;;4959787;29;20086;-75
2023/02/02 06:51:35;;;;;;;11.75;6.30;;;;;;;;;;4961895;28;20391;-74
2023/02/02 06:54:20;;;;;;;11.13;5.57;;;;;;;;;;4959648;29;20451;-75
2023/02/02 06:57:08;;;;;;;8.57;5.38;;;;;;;;;;4967053;29;20114;-74
2023/02/02 06:59:53;;;;;;;9.05;5.03;;;;;;;;;;4963670;28;20440;-74
2023/02/02 07:02:39;;;;;;;12.43;5.82;;;;;;;;;;4959980;28;20027;-75
2023/02/02 07:05:26;;;;;;;8.57;4.97;;;;;;;;;;4958781;28;20122;-75
2023/02/02 07:08:11;;;;;;;9.30;5.80;;;;;;;;;;4959486;28;20024;-75
2023/02/02 07:10:58;;;;;;;8.27;5.13;;;;;;;;;;4959167;28;20023;-74
2023/02/02 07:13:44;;;;;;;9.77;5.20;;;;;;;;;;4959608;28;20405;-75
2023/02/02 07:16:30;;;;;;;8.30;5.10;;;;;;;;;;4958843;29;20215;-74
2023/02/02 07:19:16;;;;;;;8.68;5.05;;;;;;;;;;4959664;28;20031;-75
2023/02/02 07:22:01;;;;;;;9.63;4.93;;;;;;;;;;4958417;29;20035;-75
2023/02/02 07:24:47;;;;;;;11.18;5.28;;;;;;;;;;4958383;28;20486;-74
2023/02/02 07:27:33;;;;;;;9.38;5.72;;;;;;;;;;4958530;29;20024;-75
2023/02/02 07:30:19;;;;;;;7.85;5.15;;;;;;;;;;4958387;29;20046;-75
2023/02/02 07:33:04;;;;;;;8.13;5.20;;;;;;;;;;4959229;28;20019;-74
2023/02/02 07:35:50;;;;;;;9.32;5.03;;;;;;;;;;4957838;29;20020;-75
2023/02/02 07:38:35;;;;;;;10.32;5.55;;;;;;;;;;4959717;28;20023;-74
2023/02/02 07:41:21;;;;;;;9.23;5.60;;;;;;;;;;4959124;29;20063;-74
2023/02/02 07:44:11;;;;;;;9.30;5.50;;;;;;;;;;4958374;28;20054;-74
2023/02/02 07:46:56;;;;;;;11.50;4.95;;;;;;;;;;4958523;28;20039;-74
2023/02/02 07:49:43;;;;;;;10.52;5.13;;;;;;;;;;4957726;29;20463;-74
2023/02/02 07:52:29;;;;;;;7.13;5.10;;;;;;;;;;4958202;28;20027;-74
2023/02/02 07:55:15;;;;;;;9.60;5.18;;;;;;;;;;4957659;29;20157;-75
2023/02/02 07:58:00;;;;;;;9.20;4.82;;;;;;;;;;4957944;29;20027;-75
2023/02/02 08:00:46;;;;;;;7.35;4.75;;;;;;;;;;4957866;28;20034;-74
2023/02/02 08:03:32;;;;;;;7.78;4.85;;;;;;;;;;4957573;29;20031;-74
2023/02/02 08:06:19;;;;;;;7.43;4.82;;;;;;;;;;4957758;28;20455;-74
2023/02/02 08:09:09;;;;;;;8.07;4.65;;;;;;;;;;4958799;28;20027;-73
2023/02/02 08:11:56;;;;;;;9.95;4.90;;;;;;;;;;4957991;29;20025;-75
2023/02/02 08:14:42;;;;;;;9.60;5.93;;;;;;;;;;4957154;29;20035;-76
2023/02/02 08:17:27;;;;;;;7.70;4.72;;;;;;;;;;4957186;28;20046;-74
2023/02/02 08:20:13;;;;;;;9.02;5.03;;;;;;;;;;4957381;29;20034;-73
2023/02/02 08:22:59;;;;;;;12.20;5.00;;;;;;;;;;4957426;28;20039;-74
2023/02/02 08:25:45;;;;;;;8.25;4.80;;;;;;;;;;4957189;28;20074;-74
2023/02/02 08:28:30;;;;;;;7.65;4.85;;;;;;;;;;4956747;28;20015;-75
2023/02/02 08:31:17;;;;;;;6.88;4.80;;;;;;;;;;4957261;29;20561;-74
2023/02/02 08:34:04;;;;;;;8.52;4.68;;;;;;;;;;4957832;28;20050;-74
2023/02/02 08:36:49;;;;;;;6.90;4.60;;;;;;;;;;4956580;29;20027;-75
2023/02/02 08:39:35;;;;;;;6.80;4.30;;;;;;;;;;4957176;29;20023;-75
2023/02/02 08:42:20;;;;;;;7.55;4.10;;;;;;;;;;4956888;29;20086;-74
2023/02/02 08:45:06;;;;;;;9.60;4.45;;;;;;;;;;4956749;29;20379;-74
2023/02/02 08:47:52;;;;;;;6.97;4.78;;;;;;;;;;4957735;28;20136;-75
2023/02/02 08:50:38;;;;;;;8.15;4.50;;;;;;;;;;4957304;28;20492;-75
2023/02/02 08:53:24;;;;;;;8.10;4.38;;;;;;;;;;4956758;29;20086;-74
2023/02/02 08:56:14;;;;;;;8.50;5.05;;;;;;;;;;4957898;28;20027;-73
2023/02/02 08:59:01;;;;;;;10.05;4.13;;;;;;;;;;4957123;29;20023;-75
2023/02/02 09:01:47;;;;;;;7.00;4.25;;;;;;;;;;4957242;28;20460;-74
2023/02/02 09:04:33;;;;;;;6.00;4.20;;;;;;;;;;4956985;29;20049;-75
2023/02/02 09:07:18;;;;;;;8.45;4.80;;;;;;;;;;4955996;28;20094;-75
2023/02/02 09:10:04;;;;;;;6.00;3.80;;;;;;;;;;4956846;28;20023;-75
2023/02/02 09:12:49;;;;;;;7.65;3.95;;;;;;;;;;4957376;28;20019;-75
2023/02/02 09:15:35;;;;;;;6.22;3.95;;;;;;;;;;4956735;29;20028;-75
2023/02/02 09:18:21;;;;;;;4.82;3.20;;;;;;;;;;4956603;29;20467;-74
2023/02/02 09:21:07;;;;;;;4.75;3.22;;;;;;;;;;4956832;28;20031;-74
2023/02/02 09:23:53;;;;;;;5.35;3.08;;;;;;;;;;4955678;28;20089;-75
2023/02/02 09:26:41;;;;;;;6.15;3.72;;;;;;;;;;4959187;28;20062;-75
2023/02/02 09:29:27;;;;;;;7.35;3.90;;;;;;;;;;4957163;28;20051;-74
2023/02/02 09:32:13;;;;;;;6.28;3.63;;;;;;;;;;4956245;29;20445;-75
2023/02/02 09:34:59;;;;;;;5.72;3.30;;;;;;;;;;4956654;29;20360;-74
2023/02/02 09:37:44;;;;;;;7.32;3.50;;;;;;;;;;4956947;28;20493;-73
2023/02/02 09:40:31;;;;;;;6.72;3.85;;;;;;;;;;4956647;28;20049;-74
2023/02/02 09:43:20;;;;;;;6.30;4.00;;;;;;;;;;4956937;29;20023;-75
2023/02/02 09:46:11;;;;;;;7.80;4.10;;;;;;;;;;4955299;29;20023;-75
2023/02/02 09:49:17;;;;;;;5.53;3.75;;;;;;;;;;4957394;28;20114;-74
2023/02/02 09:52:08;;;;;;;5.68;3.50;;;;;;;;;;4956095;28;20101;-75
2023/02/02 09:55:04;;;;;;;4.82;3.22;;;;;;;;;;4956785;28;20051;-75
2023/02/02 09:57:58;;;;;;;5.80;4.05;;;;;;;;;;4956524;28;20038;-74
2023/02/02 10:00:54;;;;;;;6.85;3.40;;;;;;;;;;4957030;28;20016;-74
2023/02/02 10:03:55;;;;;;;7.28;3.38;;;;;;;;;;4960056;29;20074;-74
2023/02/02 10:06:43;;;;;;;7.93;3.78;;;;;;;;;;4959119;29;20055;-75
2023/02/02 10:09:28;;;;;;;8.80;3.30;;;;;;;;;;4959627;28;20019;-75
2023/02/02 10:12:29;;;;;;;5.75;2.58;;;;;;;;;;4959818;29;20054;-75
2023/02/02 10:15:22;;;;;;;6.82;2.50;;;;;;;;;;4958661;29;20019;-74
2023/02/02 10:18:20;;;;;;;7.55;2.88;;;;;;;;;;4959520;28;20097;-74
2023/02/02 10:21:11;;;;;;;6.75;2.72;;;;;;;;;;4959593;28;20019;-75
2023/02/02 10:23:57;;;;;;;5.60;3.25;;;;;;;;;;4959505;28;20078;-73
2023/02/02 10:26:45;;;;;;;8.43;2.95;;;;;;;;;;4960076;28;20361;-74
2023/02/02 10:29:32;;;;;;;4.93;2.78;;;;;;;;;;4959251;28;20015;-76
2023/02/02 10:32:21;;;;;;;4.85;2.20;;;;;;;;;;4959069;28;20038;-75
2023/02/02 10:35:10;;;;;;;3.83;2.45;;;;;;;;;;4958356;29;20028;-75
2023/02/02 10:38:08;;;;;;;4.00;2.40;;;;;;;;;;4960320;28;20037;-74
2023/02/02 10:41:01;;;;;;;5.45;2.70;;;;;;;;;;4959108;29;20027;-75
2023/02/02 10:43:56;;;;;;;3.80;2.33;;;;;;;;;;4960284;28;20034;-75
2023/02/02 10:46:47;;;;;;;4.50;2.25;;;;;;;;;;4960085;28;20027;-75
2023/02/02 10:49:34;;;;;;;4.30;2.50;;;;;;;;;;4963474;28;20140;-75
2023/02/02 10:52:25;;;;;;;5.80;2.53;;;;;;;;;;4961497;28;20019;-75
2023/02/02 10:55:20;;;;;;;4.72;2.50;;;;;;;;;;4959083;29;20019;-74
2023/02/02 10:58:12;;;;;;;5.40;2.17;;;;;;;;;;4960542;28;20098;-77
2023/02/02 11:01:00;;;;;;;3.47;2.10;;;;;;;;;;4959306;28;20023;-75
2023/02/02 11:03:45;;;;;;;9.45;2.90;;;;;;;;;;4959672;28;20066;-74
2023/02/02 11:06:49;;;;;;;7.43;2.88;;;;;;;;;;4958810;29;20027;-75
2023/02/02 11:09:38;;;;;;;5.43;2.60;;;;;;;;;;4960491;28;20047;-75
2023/02/02 11:12:32;;;;;;;6.13;3.05;;;;;;;;;;4958382;28;20519;-74
2023/02/02 11:15:29;;;;;;;5.82;3.25;;;;;;;;;;4957971;29;20338;-75
2023/02/02 11:18:28;;;;;;;4.80;3.28;;;;;;;;;;4959078;28;20031;-74
2023/02/02 11:21:18;;;;;;;6.45;2.63;;;;;;;;;;4958879;28;20495;-75
2023/02/02 11:24:05;;;;;;;5.32;2.60;;;;;;;;;;4959508;28;20039;-75
2023/02/02 11:26:59;;;;;;;4.28;3.10;;;;;;;;;;4960639;28;20107;-76
2023/02/02 11:29:46;;;;;;;8.27;3.10;;;;;;;;;;4959086;28;20440;-74
2023/02/02 11:32:32;;;;;;;5.90;3.03;;;;;;;;;;4959375;28;20019;-75
2023/02/02 11:35:18;;;;;;;4.93;2.83;;;;;;;;;;4959031;28;20019;-75
2023/02/02 11:38:15;;;;;;;11.23;3.70;;;;;;;;;;4958898;29;20027;-75
2023/02/02 11:41:05;;;;;;;6.05;3.40;;;;;;;;;;4960315;28;20082;-76
2023/02/02 11:43:52;;;;;;;6.85;3.08;;;;;;;;;;4973752;28;20015;-74
2023/02/02 11:46:39;;;;;;;4.78;2.90;;;;;;;;;;4959241;28;20043;-74
2023/02/02 11:49:24;;;;;;;6.72;3.42;;;;;;;;;;4958803;28;20015;-75
2023/02/02 11:52:15;;;;;;;5.38;2.83;;;;;;;;;;4958451;28;20158;-74
2023/02/02 11:55:07;;;;;;;5.88;2.78;;;;;;;;;;4959439;28;20035;-75
2023/02/02 11:58:10;;;;;;;4.53;2.95;;;;;;;;;;4957902;28;20118;-74
2023/02/02 12:00:57;;;;;;;6.20;2.75;;;;;;;;;;4958373;28;20023;-74
2023/02/02 12:03:46;;;;;;;4.65;2.55;;;;;;;;;;4963726;28;20031;-74
2023/02/02 12:06:32;;;;;;;6.30;2.80;;;;;;;;;;4964043;28;20027;-72
2023/02/02 12:09:20;;;;;;;3.65;2.50;;;;;;;;;;4958035;28;20037;-75
2023/02/02 12:12:16;;;;;;;5.45;2.80;;;;;;;;;;4957682;28;20146;-74
2023/02/02 12:15:08;;;;;;;6.82;3.10;;;;;;;;;;4958023;29;20035;-74
2023/02/02 12:18:01;;;;;;;4.82;2.97;;;;;;;;;;4958992;28;20020;-75
2023/02/02 12:20:56;;;;;;;6.38;2.70;;;;;;;;;;4958030;28;20023;-74
2023/02/02 12:24:08;;;;;;;5.25;2.60;;;;;;;;;;4957276;28;20047;-74
2023/02/02 12:27:09;;;;;;;5.20;2.58;;;;;;;;;;4958170;28;20043;-74
2023/02/02 12:30:04;;;;;;;6.40;2.95;;;;;;;;;;4958543;28;20106;-74
2023/02/02 12:32:53;;;;;;;4.18;2.70;;;;;;;;;;4957248;28;20102;-73
2023/02/02 12:35:57;;;;;;;6.63;2.90;;;;;;;;;;4958394;28;20027;-72
2023/02/02 12:38:43;;;;;;;8.60;3.00;;;;;;;;;;4958313;28;20024;-75
2023/02/02 12:41:44;;;;;;;4.20;3.05;;;;;;;;;;4957254;29;20023;-74
2023/02/02 12:44:49;;;;;;;3.75;2.75;;;;;;;;;;4957702;28;20030;-75
2023/02/02 12:47:40;;;;;;;5.70;2.83;;;;;;;;;;4957366;28;20165;-76
2023/02/02 12:50:31;;;;;;;5.53;2.95;;;;;;;;;;4958297;28;20030;-75
2023/02/02 12:53:23;;;;;;;6.13;3.55;;;;;;;;;;4957034;29;20019;-73
2023/02/02 12:56:14;;;;;;;6.68;3.72;;;;;;;;;;4955661;29;20102;-75
2023/02/02 12:59:09;;;;;;;6.90;3.75;;;;;;;;;;4957790;28;20341;-74
2023/02/02 13:01:58;;;;;;;6.55;3.15;;;;;;;;;;4956730;28;20031;-75
2023/02/02 13:04:52;;;;;;;3.90;2.70;;;;;;;;;;4955993;29;20096;-75
2023/02/02 13:07:41;;;;;;;3.35;2.47;;;;;;;;;;4956963;28;20364;-75
2023/02/02 13:10:38;;;;;;;4.88;2.95;;;;;;;;;;4957784;28;20023;-73
2023/02/02 13:13:27;;;;;;;4.32;2.75;;;;;;;;;;4955501;29;20110;-71
2023/02/02 13:16:13;;;;;;;3.72;2.53;;;;;;;;;;4956561;28;20023;-74
2023/02/02 13:19:01;;;;;;;3.03;2.33;;;;;;;;;;4956896;28;20031;-74
2023/02/02 13:21:47;;;;;;;5.15;2.70;;;;;;;;;;4957492;28;20031;-74
2023/02/02 13:24:35;;;;;;;5.07;2.25;;;;;;;;;;4955737;28;20038;-77
2023/02/02 13:27:22;;;;;;;3.97;2.25;;;;;;;;;;4957319;28;20114;-75
2023/02/02 13:30:28;;;;;;;4.00;2.10;;;;;;;;;;4957598;28;20046;-75
2023/02/02 13:33:26;;;;;;;2.70;2.00;;;;;;;;;;4955991;28;20023;-76
2023/02/02 13:36:24;;;;;;;5.20;2.10;;;;;;;;;;4957308;28;20031;-75
2023/02/02 13:39:22;;;;;;;2.90;2.00;;;;;;;;;;4956838;28;20453;-74
2023/02/02 13:42:15;;;;;;;5.20;2.20;;;;;;;;;;4956651;28;20062;-75
2023/02/02 13:45:08;;;;;;;3.72;2.40;;;;;;;;;;4956345;28;20349;-75
2023/02/02 13:48:05;;;;;;;4.10;2.60;;;;;;;;;;4957206;28;20110;-74
2023/02/02 13:50:50;;;;;;;3.72;2.30;;;;;;;;;;4956487;28;20096;-76
2023/02/02 13:53:38;;;;;;;3.92;2.60;;;;;;;;;;4956218;29;20045;-76
2023/02/02 13:56:23;;;;;;;5.78;2.47;;;;;;;;;;4956314;29;20033;-74
2023/02/02 13:59:34;;;;;;;3.45;2.28;;;;;;;;;;4956158;29;20353;-76
2023/02/02 14:02:24;;;;;;;6.00;2.83;;;;;;;;;;4956545;28;20027;-75
2023/02/02 14:05:39;;;;;;;4.07;2.75;;;;;;;;;;4956063;29;20081;-75
2023/02/02 14:08:25;;;;;;;3.85;2.42;;;;;;;;;;4950035;29;20032;-75
2023/02/02 14:11:14;;;;;;;3.53;2.58;;;;;;;;;;4956050;28;20464;-75
2023/02/02 14:17:05;;;;;;;3.72;2.33;;;;;;;;;;4956597;28;20170;-75
2023/02/02 14:19:55;;;;;;;4.43;2.72;;;;;;;;;;4957276;28;20027;-74
2023/02/02 14:22:43;;;;;;;3.40;2.63;;;;;;;;;;4955876;28;20475;-75
2023/02/02 14:25:32;;;;;;;4.47;2.72;;;;;;;;;;4956122;29;20412;-74
2023/02/02 14:28:36;;;;;;;4.82;2.80;;;;;;;;;;4956357;29;20052;-74
2023/02/02 14:31:39;;;;;;;3.00;2.30;;;;;;;;;;4956641;28;20034;-76
2023/02/02 14:34:29;;;;;;;2.35;1.90;;;;;;;;;;4956847;28;20027;-75
2023/02/02 14:37:26;;;;;;;7.18;2.30;;;;;;;;;;4956865;28;20348;-75
2023/02/02 14:40:18;;;;;;;3.63;2.05;;;;;;;;;;4955304;28;20360;-75
2023/02/02 14:46:14;;;;;;;3.65;2.50;;;;;;;;;;4956192;28;20419;-74
2023/02/02 14:48:59;;;;;;;5.05;2.65;;;;;;;;;;4958806;28;20420;-75
2023/02/02 14:51:50;;;;;;;4.22;2.72;;;;;;;;;;4958956;29;20023;-75
2023/02/02 14:54:45;;;;;;;3.30;2.70;;;;;;;;;;4960404;28;20445;-75
2023/02/02 14:57:37;;;;;;;4.05;2.95;;;;;;;;;;4959456;28;20039;-73
2023/02/02 15:00:25;;;;;;;4.53;3.08;;;;;;;;;;4960027;28;20326;-75
2023/02/02 15:03:29;;;;;;;6.82;3.20;;;;;;;;;;4959651;28;20030;-75
2023/02/02 15:06:29;;;;;;;6.78;3.08;;;;;;;;;;4959760;28;20023;-75
2023/02/02 15:09:40;;;;;;;5.22;3.40;;;;;;;;;;4960050;28;20081;-75
2023/02/02 15:12:34;;;;;;;6.35;3.22;;;;;;;;;;4958375;28;20038;-74
2023/02/02 15:15:19;;;;;;;4.93;3.33;;;;;;;;;;4957973;29;20019;-74
2023/02/02 15:18:11;;;;;;;5.32;3.58;;;;;;;;;;4964798;29;20011;-73
2023/02/02 15:20:58;;;;;;;6.38;3.75;;;;;;;;;;4960063;29;20023;-74
2023/02/02 15:23:45;;;;;;;5.80;3.85;;;;;;;;;;4964930;28;20048;-75
2023/02/02 15:26:38;;;;;;;5.47;3.80;;;;;;;;;;4961888;28;20031;-75
2023/02/02 15:29:41;;;;;;;6.20;4.03;;;;;;;;;;4964094;28;20102;-74
2023/02/02 15:32:27;;;;;;;5.63;3.70;;;;;;;;;;4958146;28;20011;-75
2023/02/02 15:35:19;;;;;;;8.15;4.30;;;;;;;;;;4958687;28;20113;-75
2023/02/02 15:38:05;;;;;;;6.20;4.05;;;;;;;;;;4958529;28;20027;-74
2023/02/02 15:40:51;;;;;;;6.28;4.10;;;;;;;;;;4958901;28;20055;-75
2023/02/02 15:43:37;;;;;;;6.75;3.95;;;;;;;;;;4957095;29;20026;-75
2023/02/02 15:46:25;;;;;;;6.40;4.40;;;;;;;;;;4958297;28;20518;-74
2023/02/02 15:49:20;;;;;;;7.30;4.22;;;;;;;;;;4959642;28;20117;-74
2023/02/02 15:52:10;;;;;;;5.72;3.83;;;;;;;;;;4957582;29;20034;-76
2023/02/02 15:54:57;;;;;;;6.00;3.47;;;;;;;;;;4957672;29;20110;-75
2023/02/02 15:57:43;;;;;;;5.35;3.72;;;;;;;;;;4945190;28;20030;-75
2023/02/02 16:00:36;;;;;;;6.32;3.60;;;;;;;;;;4958039;28;20106;-76
2023/02/02 16:03:25;;;;;;;7.20;3.70;;;;;;;;;;4957996;28;20027;-75
2023/02/02 16:06:11;;;;;;;6.50;3.90;;;;;;;;;;4959097;28;20388;-75
2023/02/02 16:08:56;;;;;;;4.93;3.55;;;;;;;;;;4957272;29;20440;-75
2023/02/02 16:11:42;;;;;;;5.28;3.55;;;;;;;;;;4957410;28;20058;-75
2023/02/02 16:14:29;;;;;;;6.85;4.18;;;;;;;;;;4958303;28;20035;-75
2023/02/02 16:17:30;;;;;;;9.45;4.30;;;;;;;;;;4958768;28;20393;-75
2023/02/02 16:20:16;;;;;;;6.45;4.50;;;;;;;;;;4958187;28;20039;-75
2023/02/02 16:23:05;;;;;;;11.93;5.78;;;;;;;;;;4958153;28;20077;-76
2023/02/02 16:25:51;;;;;;;7.80;4.78;;;;;;;;;;4958093;29;20037;-75
2023/02/02 16:28:37;;;;;;;9.85;5.13;;;;;;;;;;4958880;28;20103;-75
2023/02/02 16:31:23;;;;;;;11.30;5.70;;;;;;;;;;4957281;29;20055;-75
2023/02/02 16:34:13;;;;;;;6.90;4.65;;;;;;;;;;4959067;28;20031;-75
2023/02/02 16:37:16;;;;;;;6.35;4.78;;;;;;;;;;4957813;28;20050;-75
2023/02/02 16:40:22;;;;;;;6.05;4.40;;;;;;;;;;4956637;28;20051;-75
2023/02/02 16:43:18;;;;;;;6.43;4.45;;;;;;;;;;4954351;29;20126;-74
2023/02/02 16:46:11;;;;;;;7.22;4.88;;;;;;;;;;4957553;28;20035;-76
2023/02/02 16:48:59;;;;;;;8.35;4.95;;;;;;;;;;4957852;28;20102;-75
2023/02/02 16:51:46;;;;;;;9.35;5.55;;;;;;;;;;4957706;28;20078;-75
2023/02/02 16:54:32;;;;;;;8.50;5.28;;;;;;;;;;4945096;28;20023;-76
2023/02/02 16:57:20;;;;;;;7.70;5.30;;;;;;;;;;4958312;28;20078;-75
2023/02/02 17:00:07;;;;;;;9.75;5.60;;;;;;;;;;4960813;28;20031;-75
2023/02/02 17:02:56;;;;;;;9.23;5.63;;;;;;;;;;4957232;28;20126;-75
2023/02/02 17:05:48;;;;;;;8.77;5.68;;;;;;;;;;4959960;28;20044;-76